Nearby METAR Reports

KLNK - Lincoln, Nebraska, USA
Distance from station: WNW 8mi, 13km
Updated: Mon, 06-Apr-2020 3:54am CDT
Overcast
Overcast
 Wind from S
Wind: S 14 mph , 22 km/h
Temperature: 54°F , 12°C
Dew Point: 45°F , 7°C
Humidity: 72%
Barometer: 29.88 inHg , 1011.9 hPa
Clouds: Overcast
Visibility: 8 miles , 13 km
Cloud details: Overcast 4000 ft
2020/04/06 08:54 KLNK 060854Z AUTO 17012KT 8SM OVC040 12/07 A2988 RMK AO2 SLP117 T01170072 58020 $
KAHQ - Wahoo, Nebraska, USA
Distance from station: N 31mi, 49km
Updated: Mon, 06-Apr-2020 4:35am CDT
Overcast
Overcast
 Wind from SSE
Wind: SSE 13 mph , 20 km/h
Temperature: 52°F , 11°C
Dew Point: 46°F , 8°C
Humidity: 82%
Barometer: 29.87 inHg , 1011.5 hPa
Clouds: Overcast
Visibility: 10 miles , 16 km
Cloud details: Overcast 3900 ft
2020/04/06 09:35 KAHQ 060935Z AUTO 15011KT 10SM OVC039 11/08 A2987 RMK AO2 T01080080
 
KBIE - Beatrice Municip, Nebraska, USA
Distance from station: S 36mi, 57km
Updated: Mon, 06-Apr-2020 4:35am CDT
Overcast
Overcast
 Wind from SSE
Wind: SSE 10 mph , 17 km/h
Temperature: 54°F , 12°C
Dew Point: 50°F , 10°C
Humidity: 88%
Barometer: 29.87 inHg , 1011.5 hPa
Clouds: Overcast
Visibility: 7 miles , 11 km
Cloud details: Partly Cloudy 1300 ft
Overcast 3200 ft
2020/04/06 09:35 KBIE 060935Z AUTO 16009KT 7SM SCT013 OVC032 12/10 A2987 RMK AO2 T01220102
KMLE - Omaha/Millard, Nebraska, USA
Distance from station: NE 39mi, 63km
Updated: Mon, 06-Apr-2020 4:35am CDT
Overcast
Overcast
 Wind from SE
Wind: SE 9 mph , 15 km/h
Temperature: 52°F , 11°C
Dew Point: 46°F , 8°C
Humidity: 82%
Barometer: 29.90 inHg , 1012.5 hPa
Clouds: Overcast
Visibility: 10 miles , 16 km
Cloud details: Overcast 4400 ft
2020/04/06 09:35 KMLE 060935Z AUTO 14008KT 10SM OVC044 11/08 A2990 RMK AO2 T01120077
 
KPMV - Plattsmouth Muni, Nebraska, USA
Distance from station: ENE 39mi, 63km
Updated: Mon, 06-Apr-2020 4:35am CDT
Overcast
Overcast
 Wind from SE
Wind: SE 14 mph , 22 km/h, Gust: 17 mph , 28 km/h
Temperature: 52°F , 11°C
Dew Point: 46°F , 8°C
Humidity: 82%
Barometer: 29.90 inHg , 1012.5 hPa
Clouds: Overcast
Visibility: 10 miles , 16 km
Cloud details: Mostly Cloudy 1300 ft
Mostly Cloudy 3600 ft
Overcast 4100 ft
2020/04/06 09:35 KPMV 060935Z AUTO 14012G15KT 10SM BKN013 BKN036 OVC041 11/08 A2990 RMK AO2 T01050080
KAFK - Nebraska City, Nebraska, USA
Distance from station: ESE 43mi, 69km
Updated: Mon, 06-Apr-2020 4:35am CDT
Overcast
Overcast
 Wind from S
Wind: S 14 mph , 22 km/h
Temperature: 52°F , 11°C
Dew Point: 50°F , 10°C
Humidity: 94%
Barometer: 29.90 inHg , 1012.5 hPa
Clouds: Overcast
Visibility: 10 miles , 16 km
Cloud details: Overcast 3800 ft
2020/04/06 09:35 KAFK 060935Z AUTO 17012KT 10SM OVC038 11/10 A2990 RMK AO2 T01080100
 
KOFF - Offutt Afb/Belle, Nebraska, USA
Distance from station: ENE 44mi, 70km
Updated: Mon, 06-Apr-2020 3:56am CDT
Overcast
Overcast
 Wind from SE
Wind: SE 10 mph , 17 km/h
Temperature: 52°F , 11°C
Dew Point: 46°F , 8°C
Humidity: 82%
Barometer: 29.90 inHg , 1012.5 hPa
Clouds: Overcast
Visibility: 10 miles , 16 km
Cloud details: Overcast 4500 ft
2020/04/06 08:56 KOFF 060856Z AUTO 14009KT 10SM OVC045 11/08 A2990 RMK AO2 SLP129 T01070076 57024 $
KFET - Fremont Muni Arp, Nebraska, USA
Distance from station: N 46mi, 74km
Updated: Mon, 06-Apr-2020 4:35am CDT
Overcast
Overcast
 Wind from SSE
Wind: SSE 12 mph , 19 km/h
Temperature: 52°F , 11°C
Dew Point: 48°F , 9°C
Humidity: 88%
Barometer: 29.88 inHg , 1011.9 hPa
Clouds: Overcast
Visibility: 10 miles , 16 km
Cloud details: Overcast 4000 ft
2020/04/06 09:35 KFET 060935Z AUTO 15010KT 10SM OVC040 11/09 A2988 RMK AO2 T01130087
 
KBTA - Blair Muni, Nebraska, USA
Distance from station: NNE 51mi, 82km
Updated: Mon, 06-Apr-2020 4:35am CDT
Overcast
Overcast
 Wind from SSE
Wind: SSE 13 mph , 20 km/h
Temperature: 52°F , 11°C
Dew Point: 46°F , 8°C
Humidity: 82%
Barometer: 29.88 inHg , 1011.9 hPa
Clouds: Overcast
Visibility: 10 miles , 16 km
Cloud details: Overcast 4200 ft
2020/04/06 09:35 KBTA 060935Z AUTO 16011KT 10SM OVC042 11/08 A2988 RMK AO2 T01050080
KJYR - York, Nebraska, USA
Distance from station: W 52mi, 84km
Updated: Mon, 06-Apr-2020 4:35am CDT
Overcast
Overcast
 Wind from SSE
Wind: SSE 13 mph , 20 km/h
Temperature: 52°F , 11°C
Dew Point: 50°F , 10°C
Humidity: 94%
Barometer: 29.83 inHg , 1010.2 hPa
Clouds: Overcast
Visibility: 8 miles , 13 km
Cloud details: Overcast 2500 ft
2020/04/06 09:35 KJYR 060935Z AUTO 16011KT 8SM OVC025 11/10 A2983 RMK AO2
 
KOMA - Omaha/Eppley, Nebraska, USA
Distance from station: NE 53mi, 85km
Updated: Mon, 06-Apr-2020 3:52am CDT
Overcast
Overcast
 Wind from S
Wind: S 15 mph , 24 km/h
Temperature: 52°F , 11°C
Dew Point: 45°F , 7°C
Humidity: 77%
Barometer: 29.90 inHg , 1012.5 hPa
Clouds: Overcast
Visibility: 10 miles , 16 km
Cloud details: Overcast 4800 ft
2020/04/06 08:52 KOMA 060852Z 17013KT 10SM OVC048 11/07 A2990 RMK AO2 SLP122 T01060072 58024 $
KOLU - Columbus Muni, Nebraska, USA
Distance from station: NW 58mi, 93km
Updated: Mon, 06-Apr-2020 3:56am CDT
Overcast
Overcast
 Wind from SSE
Wind: SSE 9 mph , 15 km/h
Temperature: 52°F , 11°C
Dew Point: 45°F , 7°C
Humidity: 77%
Barometer: 29.86 inHg , 1011.2 hPa
Clouds: Overcast
Visibility: 8 miles , 13 km
Cloud details: Overcast 3600 ft
2020/04/06 08:56 KOLU 060856Z AUTO 16008KT 8SM OVC036 11/07 A2986 RMK AO2 SLP113 T01060072 56020